< < Back
Terminal Aerodrome Forecast


Current Version              Previous Versions:   1  2  3  4  5  6  7  8  9  

Terminal Aerodrome Forecast

797
FTUS42 KCAE 160900 AAA
TAFAGS
TAF AMD
KAGS 160908Z 1609/1706 01006KT P6SM SKC
     FM161300 04011G17KT P6SM SKC
     FM161700 07010KT P6SM SKC=

Latest METAR

843
SAUS70 KWBC 161000 RRH
MTRAGS
METAR KAGS 160953Z AUTO 03007KT 10SM CLR 03/M02 A3021 RMK AO2 SLP230
T00331022


USA.gov is the U.S. government's official web portal to all federal, state and local government web resources and services.